Time;durP1;ratioP1;P1;durP2;ratioP2;P2;SDS_P1;SDS_P2;PMS_P1;PMS_P2;Temp;Humidity;BMP_temperature;BMP_pressure;BME280_temperature;BME280_humidity;BME280_pressure;Samples;Min_cycle;Max_cycle;Signal;HPM_P1;HPM_P2
2021/07/13 00:00:39;;;;;;;6.43;4.03;;;19.50;99.90;;;18.35;89.89;100573.63;3539153;39;102979;-39
2021/07/13 00:03:08;;;;;;;5.82;4.40;;;19.50;99.90;;;18.33;90.32;100573.06;3539560;39;102326;-41
2021/07/13 00:05:39;;;;;;;6.63;4.38;;;19.50;99.90;;;18.34;90.69;100577.47;3538860;39;102310;-41
2021/07/13 00:08:08;;;;;;;5.85;4.20;;;19.50;99.90;;;18.32;90.79;100574.97;3539583;39;103095;-41
2021/07/13 00:10:40;;;;;;;5.50;4.38;;;19.50;99.90;;;18.31;91.12;100583.56;3539397;39;102473;-40
2021/07/13 00:13:08;;;;;;;8.13;4.57;;;19.50;99.90;;;18.31;91.28;100580.78;3539328;39;102292;-42
2021/07/13 00:15:44;;;;;;;5.45;4.00;;;19.50;99.90;;;18.30;91.10;100579.94;3538810;39;102468;-41
2021/07/13 00:18:12;;;;;;;5.80;4.35;;;19.50;99.90;;;18.30;91.20;100573.56;3539584;39;103776;-42
2021/07/13 00:20:40;;;;;;;7.72;3.92;;;19.50;99.90;;;18.25;91.41;100571.66;3539732;39;102423;-40
2021/07/13 00:23:08;;;;;;;6.45;4.50;;;19.50;99.90;;;18.28;90.72;100575.78;3539477;39;103122;-42
2021/07/13 00:25:38;;;;;;;7.43;4.22;;;19.50;99.90;;;18.29;90.81;100577.44;3538976;39;102620;-40
2021/07/13 00:28:06;;;;;;;6.32;4.25;;;19.50;99.90;;;18.25;90.73;100577.97;3539012;39;102132;-40
2021/07/13 00:30:34;;;;;;;6.28;4.10;;;19.50;99.90;;;18.27;90.55;100591.53;3539273;39;102354;-40
2021/07/13 00:33:01;;;;;;;5.75;4.05;;;19.40;99.90;;;18.27;90.63;100588.78;3539194;39;102718;-40
2021/07/13 00:35:32;;;;;;;7.82;4.53;;;19.40;99.90;;;18.28;90.66;100597.88;3539010;39;102159;-40
2021/07/13 00:37:59;;;;;;;6.40;4.45;;;19.40;99.90;;;18.25;90.81;100600.06;3539204;39;104230;-40
2021/07/13 00:40:26;;;;;;;6.63;4.55;;;19.40;99.90;;;18.25;90.81;100599.25;3538695;39;102520;-40
2021/07/13 00:42:54;;;;;;;6.13;4.15;;;19.40;99.90;;;18.24;90.88;100605.88;3539655;39;102341;-40
2021/07/13 00:45:24;;;;;;;5.57;4.05;;;19.40;99.90;;;18.21;90.58;100604.47;3538967;39;102229;-41
2021/07/13 00:47:53;;;;;;;5.97;4.05;;;19.40;99.90;;;18.22;90.49;100608.09;3538929;39;103105;-40
2021/07/13 00:50:26;;;;;;;5.93;3.85;;;19.40;99.90;;;18.21;90.95;100610.00;3539075;39;102211;-39
2021/07/13 00:52:58;;;;;;;5.70;4.20;;;19.40;99.90;;;18.22;91.24;100616.38;3538817;39;103053;-40
2021/07/13 00:55:26;;;;;;;6.30;4.28;;;19.40;99.90;;;18.21;91.55;100611.94;3538923;39;102364;-40
2021/07/13 00:57:57;;;;;;;8.25;4.13;;;19.30;99.90;;;18.20;91.70;100624.91;3540571;39;102337;-41
2021/07/13 01:00:25;;;;;;;8.60;6.03;;;19.40;99.90;;;18.24;91.21;100622.44;3540343;39;102316;-42
2021/07/13 01:02:57;;;;;;;;;;;19.40;99.90;;;18.22;90.09;100619.94;3540958;39;102331;-39
2021/07/13 01:05:31;;;;;;;9.73;6.47;;;19.40;99.90;;;18.20;89.83;100619.38;3539935;39;102441;-41
2021/07/13 01:08:40;;;;;;;10.40;6.90;;;19.30;99.90;;;18.20;90.16;100619.38;3540476;39;103956;-40
2021/07/13 01:11:49;;;;;;;8.70;6.60;;;19.40;99.90;;;18.11;89.95;100609.97;3539951;39;102479;-39
2021/07/13 01:14:55;;;;;;;9.80;6.80;;;19.40;99.90;;;18.20;90.63;100621.31;3534410;39;103392;-40
2021/07/13 01:17:55;;;;;;;10.05;7.22;;;19.40;99.90;;;18.20;91.20;100621.31;3534202;39;102869;-39
2021/07/13 01:21:18;;;;;;;12.10;7.60;;;19.40;99.90;;;18.15;91.76;100626.78;3540536;39;102311;-39
2021/07/13 01:24:36;;;;;;;10.10;7.85;;;19.30;99.90;;;18.11;92.18;100626.53;3535490;39;103200;-40
2021/07/13 01:27:27;;;;;;;11.10;8.20;;;19.30;99.90;;;18.08;92.62;100627.06;3577088;22;104096;-41
2021/07/13 01:29:56;;;;;;;12.32;8.63;;;19.30;99.90;;;18.05;92.89;100633.13;3540971;39;102251;-41
2021/07/13 01:32:29;;;;;;;12.80;9.27;;;19.20;99.90;;;18.04;93.18;100623.19;3540894;39;102225;-41
2021/07/13 01:35:04;;;;;;;13.88;9.05;;;19.20;99.90;;;18.00;93.38;100620.09;3540426;39;102464;-41
2021/07/13 01:37:34;;;;;;;11.73;8.38;;;19.20;99.90;;;17.99;93.68;100618.41;3529980;39;102288;-41
2021/07/13 01:40:07;;;;;;;11.65;8.50;;;19.20;99.90;;;17.95;93.74;100618.13;3530304;39;102512;-41
2021/07/13 01:42:39;;;;;;;10.77;8.55;;;19.20;99.90;;;17.98;93.98;100620.34;3530299;39;103148;-41
2021/07/13 01:45:08;;;;;;;13.80;10.15;;;19.20;99.90;;;17.96;94.04;100619.78;3530502;39;102426;-43
2021/07/13 01:47:38;;;;;;;12.30;9.63;;;19.20;99.90;;;17.93;94.07;100614.78;3530163;39;103096;-41
2021/07/13 01:50:08;;;;;;;15.40;10.85;;;19.10;99.90;;;17.93;94.12;100613.97;3530158;39;102692;-41
2021/07/13 01:52:39;;;;;;;13.68;10.23;;;19.10;99.90;;;17.91;94.66;100610.66;3530309;39;103259;-41
2021/07/13 01:55:09;;;;;;;13.23;10.10;;;19.10;99.90;;;17.88;94.58;100617.53;3530066;39;102998;-42
2021/07/13 01:57:38;;;;;;;15.15;11.20;;;19.10;99.90;;;17.86;95.04;100618.88;3530385;39;103243;-44
2021/07/13 02:00:09;;;;;;;13.73;10.52;;;19.00;99.90;;;17.85;95.17;100600.66;3521208;39;102362;-41
2021/07/13 02:02:44;;;;;;;14.65;11.65;;;19.00;99.90;;;17.84;95.43;100597.09;3530493;39;104180;-40
2021/07/13 02:05:12;;;;;;;14.27;10.75;;;19.00;99.90;;;17.86;95.58;100597.66;3530517;39;103619;-43
2021/07/13 02:07:43;;;;;;;19.58;12.73;;;19.00;99.90;;;17.89;95.96;100599.88;3530067;39;103528;-41
2021/07/13 02:10:11;;;;;;;17.17;11.77;;;19.10;99.90;;;17.90;95.92;100597.94;3530395;39;102245;-40
2021/07/13 02:12:39;;;;;;;18.27;13.45;;;19.10;99.90;;;17.88;95.95;100598.22;3530617;39;103224;-40
2021/07/13 02:15:07;;;;;;;19.77;14.70;;;19.10;99.90;;;17.87;95.91;100588.28;3529921;39;102278;-41
2021/07/13 02:17:36;;;;;;;16.13;11.60;;;19.10;99.90;;;17.86;95.89;100583.84;3530311;39;102335;-41
2021/07/13 02:20:09;;;;;;;18.52;13.70;;;19.00;99.90;;;17.83;96.09;100582.44;3529892;39;104220;-41
2021/07/13 02:22:38;;;;;;;16.92;12.48;;;19.00;99.90;;;17.80;96.09;100582.19;3530357;39;102372;-41
2021/07/13 02:25:09;;;;;;;19.33;12.00;;;19.00;99.90;;;17.84;96.25;100586.06;3530009;39;102232;-41
2021/07/13 02:28:06;;;;;;;16.60;12.00;;;19.00;99.90;;;17.84;96.23;100583.28;3530072;39;103216;-41
2021/07/13 02:30:40;;;;;;;19.85;14.20;;;19.00;99.90;;;17.85;96.21;100565.63;3528313;39;102838;-41
2021/07/13 02:33:23;;;;;;;19.38;14.43;;;19.10;99.90;;;17.80;96.25;100569.19;3530155;39;102254;-41
2021/07/13 02:36:01;;;;;;;17.48;13.10;;;19.00;99.90;;;17.89;96.03;100568.69;3530008;39;102398;-43
2021/07/13 02:38:29;;;;;;;21.23;15.15;;;19.10;99.90;;;17.88;95.64;100572.53;3530731;39;103369;-41
2021/07/13 02:40:58;;;;;;;19.67;14.65;;;19.10;99.90;;;17.88;95.43;100567.84;3530426;39;102685;-43
2021/07/13 02:43:26;;;;;;;21.77;15.90;;;19.10;99.90;;;17.84;95.14;100577.78;3530061;39;103194;-41
2021/07/13 02:45:55;;;;;;;19.20;13.70;;;19.00;99.90;;;17.83;95.37;100576.13;3530175;39;102484;-41
2021/07/13 02:48:25;;;;;;;18.75;13.75;;;19.00;99.90;;;17.80;95.50;100571.13;3529737;39;102176;-41
2021/07/13 02:50:56;;;;;;;18.20;13.18;;;19.00;99.90;;;17.78;95.57;100571.38;3530016;39;103275;-41
2021/07/13 02:53:28;;;;;;;20.33;13.68;;;19.00;99.90;;;17.75;95.60;100565.56;3530384;39;102324;-42
2021/07/13 02:55:57;;;;;;;20.52;15.35;;;19.00;99.90;;;17.72;95.82;100574.38;3530312;39;102419;-41
2021/07/13 02:58:27;;;;;;;20.55;15.02;;;18.90;99.90;;;17.68;95.72;100569.41;3529917;39;103168;-41
2021/07/13 03:00:56;;;;;;;19.88;15.43;;;18.90;99.90;;;17.69;95.43;100564.72;3530176;39;102332;-40
2021/07/13 03:03:24;;;;;;;23.02;15.23;;;18.90;99.90;;;17.66;95.53;100560.56;3529711;39;102344;-43
2021/07/13 03:05:54;;;;;;;19.67;14.60;;;18.90;99.90;;;17.66;95.45;100562.50;3529593;39;102463;-44
2021/07/13 03:08:23;;;;;;;18.92;13.20;;;18.80;99.90;;;17.62;95.20;100556.69;3530223;39;102253;-40
2021/07/13 03:10:55;;;;;;;18.02;13.82;;;18.80;99.90;;;17.60;94.96;100558.03;3530176;39;102218;-43
2021/07/13 03:13:25;;;;;;;19.08;13.50;;;18.80;99.90;;;17.56;94.79;100549.47;3529949;39;102361;-44
2021/07/13 03:15:53;;;;;;;17.35;12.73;;;18.80;99.90;;;17.51;94.84;100539.22;3529816;39;102462;-42
2021/07/13 03:18:21;;;;;;;18.08;13.65;;;18.70;99.90;;;17.48;94.81;100545.28;3529387;39;103144;-42
2021/07/13 03:20:53;;;;;;;17.75;12.88;;;18.70;99.90;;;17.48;94.93;100534.25;3529996;39;102745;-41
2021/07/13 03:23:22;;;;;;;18.40;12.95;;;18.70;99.90;;;17.47;94.97;100531.75;3529629;39;105030;-41
2021/07/13 03:25:51;;;;;;;17.50;13.13;;;18.70;99.90;;;17.46;94.93;100535.59;3529874;39;102615;-41
2021/07/13 03:28:22;;;;;;;16.20;11.57;;;18.70;99.90;;;17.45;94.44;100536.69;3529945;39;104408;-41
2021/07/13 03:30:54;;;;;;;15.68;11.43;;;18.70;99.90;;;17.39;94.57;100533.91;3529993;39;102393;-44
2021/07/13 03:33:22;;;;;;;14.85;11.18;;;18.60;99.90;;;17.39;94.77;100530.34;3530116;39;104474;-41
2021/07/13 03:35:53;;;;;;;;;;;18.60;99.90;;;17.36;95.02;100531.69;3530134;39;102424;-41
2021/07/13 03:38:20;;;;;;;16.98;11.80;;;18.60;99.90;;;17.34;95.04;100522.88;3529973;39;103350;-41
2021/07/13 03:40:49;;;;;;;17.83;12.98;;;18.60;99.90;;;17.32;95.14;100514.03;3530289;39;102563;-42
2021/07/13 03:43:18;;;;;;;17.10;12.45;;;18.60;99.90;;;17.32;95.11;100525.06;3529979;39;102246;-41
2021/07/13 03:45:45;;;;;;;15.15;11.07;;;18.50;99.90;;;17.30;95.37;100520.88;3529800;39;103288;-40
2021/07/13 03:48:13;;;;;;;;;;;18.50;99.90;;;17.23;95.61;100518.34;3530440;39;102188;-41
2021/07/13 03:50:44;;;;;;;17.55;12.05;;;18.50;99.90;;;17.22;95.51;100531.31;3530587;39;103251;-41
2021/07/13 03:53:14;;;;;;;16.75;11.55;;;18.50;99.90;;;17.19;95.51;100528.25;3529873;39;104089;-41
2021/07/13 03:55:44;;;;;;;16.67;10.85;;;18.50;99.90;;;17.22;95.92;100525.81;3529836;39;103446;-41
2021/07/13 03:58:12;;;;;;;18.42;12.80;;;18.50;99.90;;;17.21;95.83;100524.16;3529453;39;103435;-41
2021/07/13 04:00:40;;;;;;;18.60;12.30;;;18.40;99.90;;;17.19;96.01;100526.34;3529648;39;102449;-41
2021/07/13 04:03:07;;;;;;;17.65;11.68;;;18.40;99.90;;;17.20;95.84;100525.25;3529654;39;102309;-40
2021/07/13 04:05:35;;;;;;;;;;;18.40;99.90;;;17.20;95.88;100521.66;3529523;39;102295;-42
2021/07/13 04:08:04;;;;;;;23.23;14.05;;;18.40;99.90;;;17.20;95.97;100528.00;3530104;39;102254;-41
2021/07/13 04:10:32;;;;;;;20.35;12.98;;;18.40;99.90;;;17.18;96.00;100526.59;3529856;39;102183;-41
2021/07/13 04:12:59;;;;;;;18.70;11.88;;;18.40;99.90;;;17.18;96.48;100529.34;3529110;39;102299;-43
2021/07/13 04:15:27;;;;;;;19.88;12.60;;;18.40;99.90;;;17.15;96.29;100525.22;3529357;39;102483;-41
2021/07/13 04:17:54;;;;;;;22.60;14.35;;;18.40;99.90;;;17.16;96.38;100531.53;3529234;39;102437;-40
2021/07/13 04:20:22;;;;;;;24.23;14.20;;;18.40;99.90;;;17.14;96.53;100528.22;3529939;39;102417;-42
2021/07/13 04:22:49;;;;;;;20.83;14.02;;;18.30;99.90;;;17.09;96.30;100524.34;3529597;39;103446;-40
2021/07/13 04:25:17;;;;;;;20.70;13.48;;;18.40;99.90;;;17.13;96.49;100523.81;3529512;39;102581;-41
2021/07/13 04:27:44;;;;;;;18.73;12.32;;;18.40;99.90;;;17.16;96.79;100534.28;3529741;39;102220;-40
2021/07/13 04:30:12;;;;;;;20.63;12.77;;;18.40;99.90;;;17.16;96.86;100532.38;3529351;39;102500;-44
2021/07/13 04:32:40;;;;;;;19.35;12.50;;;18.40;99.90;;;17.15;96.59;100540.91;3521485;39;102257;-40
2021/07/13 04:35:08;;;;;;;;;;;18.30;99.90;;;17.15;96.30;100540.91;3531033;39;102088;-41
2021/07/13 04:37:35;;;;;;;19.45;12.20;;;18.40;99.90;;;17.15;96.29;100540.91;3530897;39;103105;-40
2021/07/13 04:40:04;;;;;;;;;;;18.40;99.90;;;17.11;96.33;100537.88;3531526;39;102361;-40
2021/07/13 04:42:35;;;;;;;15.45;10.55;;;18.40;99.90;;;17.15;96.49;100543.66;3529598;39;102381;-40
2021/07/13 04:45:04;;;;;;;16.10;10.40;;;18.40;99.90;;;17.13;96.42;100551.38;3530642;39;103189;-40
2021/07/13 04:47:31;;;;;;;14.85;10.38;;;18.30;99.90;;;17.13;96.46;100546.69;3530931;39;103091;-40
2021/07/13 04:49:59;;;;;;;15.15;9.90;;;18.30;99.90;;;17.13;96.56;100545.84;3529958;39;102102;-41
2021/07/13 04:52:26;;;;;;;14.05;9.25;;;18.30;99.90;;;17.13;96.71;100551.38;3529881;39;102350;-41
2021/07/13 04:54:54;;;;;;;15.95;11.25;;;18.30;99.90;;;17.12;96.72;100547.78;3530451;39;102269;-40
2021/07/13 04:57:21;;;;;;;16.63;10.65;;;18.30;99.90;;;17.13;96.85;100543.94;3530403;39;103148;-42
2021/07/13 04:59:49;;;;;;;15.18;9.55;;;18.40;99.90;;;17.10;97.05;100541.69;3530407;39;102396;-40
2021/07/13 05:02:19;;;;;;;15.27;10.55;;;18.30;99.90;;;17.16;96.95;100545.31;3530431;39;104144;-40
2021/07/13 05:04:47;;;;;;;15.05;10.25;;;18.30;99.90;;;17.13;96.88;100549.44;3530571;39;102530;-41
2021/07/13 05:07:14;;;;;;;;;;;18.40;99.90;;;17.10;96.68;100547.19;3530949;39;102665;-40
2021/07/13 05:09:42;;;;;;;12.90;9.65;;;18.30;99.90;;;17.09;96.75;100551.91;3530232;39;102397;-44
2021/07/13 05:12:09;;;;;;;;;;;18.30;99.90;;;17.08;96.61;100541.13;3531330;39;102256;-40
2021/07/13 05:14:37;;;;;;;11.65;7.78;;;18.30;99.90;;;17.09;96.64;100546.38;3521492;39;102428;-41
2021/07/13 05:17:05;;;;;;;10.60;7.25;;;18.30;99.90;;;17.07;96.15;100550.47;3530137;39;102348;-41
2021/07/13 05:19:33;;;;;;;;;;;18.30;99.90;;;17.03;96.07;100543.84;3530633;39;102483;-42
2021/07/13 05:22:02;;;;;;;7.60;5.13;;;18.20;99.90;;;17.00;95.78;100542.47;3529910;39;102971;-41
2021/07/13 05:24:30;;;;;;;7.85;5.20;;;18.20;99.90;;;16.96;95.45;100541.25;3530151;39;102525;-41
2021/07/13 05:26:57;;;;;;;7.30;4.95;;;18.20;99.90;;;16.98;94.96;100539.13;3529758;39;102719;-41
2021/07/13 05:29:26;;;;;;;6.10;4.57;;;18.20;99.90;;;16.94;94.59;100537.94;3530427;39;103388;-42
2021/07/13 05:31:53;;;;;;;7.43;4.60;;;18.20;99.90;;;16.94;94.89;100535.19;3530277;39;103166;-41
2021/07/13 05:34:21;;;;;;;7.18;5.10;;;18.20;99.90;;;16.95;95.06;100534.09;3530071;39;102409;-40
2021/07/13 05:36:48;;;;;;;7.63;5.35;;;18.20;99.90;;;16.97;95.41;100534.66;3530343;39;104971;-41
2021/07/13 05:39:16;;;;;;;8.02;5.43;;;18.20;99.90;;;16.97;95.47;100529.16;3530184;39;102423;-41
2021/07/13 05:41:43;;;;;;;8.25;5.00;;;18.20;99.90;;;16.97;95.79;100535.50;3530307;39;103232;-41
2021/07/13 05:44:11;;;;;;;7.63;5.55;;;18.20;99.90;;;16.99;95.68;100532.53;3529929;39;102752;-41
2021/07/13 05:46:38;;;;;;;8.90;6.22;;;18.20;99.90;;;17.03;95.77;100539.19;3530181;39;103387;-40
2021/07/13 05:49:06;;;;;;;8.38;6.25;;;18.20;99.90;;;17.05;95.69;100538.91;3530067;39;102457;-41
2021/07/13 05:51:34;;;;;;;8.50;5.90;;;18.20;99.90;;;17.11;96.07;100535.09;3530565;39;102436;-43
2021/07/13 05:54:01;;;;;;;10.63;6.55;;;18.30;99.90;;;17.17;96.09;100546.97;3529972;39;102150;-41
2021/07/13 05:56:28;;;;;;;10.30;6.63;;;18.30;99.90;;;17.20;96.01;100535.44;3530083;39;102299;-41
2021/07/13 05:58:56;;;;;;;10.48;6.53;;;18.30;99.90;;;17.25;95.44;100532.72;3529747;39;102306;-44
2021/07/13 06:01:24;;;;;;;;;;;18.40;99.90;;;17.27;95.68;100541.56;3530760;39;103309;-41
2021/07/13 06:03:53;;;;;;;9.18;5.95;;;18.40;99.90;;;17.33;95.77;100540.50;3530185;39;102183;-41
2021/07/13 06:06:21;;;;;;;8.30;5.90;;;18.40;99.90;;;17.34;95.48;100547.69;3530046;39;104160;-41
2021/07/13 06:08:48;;;;;;;9.80;6.75;;;18.50;99.90;;;17.36;95.34;100544.63;3529941;39;102542;-42
2021/07/13 06:11:17;;;;;;;8.27;6.28;;;18.50;99.90;;;17.40;95.73;100541.09;3529455;39;102230;-41
2021/07/13 06:13:45;;;;;;;10.00;6.63;;;18.50;99.90;;;17.46;95.87;100543.88;3530136;39;102251;-42
2021/07/13 06:16:12;;;;;;;11.45;7.05;;;18.50;99.90;;;17.48;95.84;100539.78;3529752;39;103072;-40
2021/07/13 06:18:40;;;;;;;10.27;6.93;;;18.60;99.90;;;17.52;95.77;100538.13;3530120;39;102410;-41
2021/07/13 06:21:09;;;;;;;10.38;6.75;;;18.60;99.90;;;17.56;95.58;100545.88;3530145;39;102245;-41
2021/07/13 06:23:37;;;;;;;11.07;8.05;;;18.60;99.90;;;17.57;95.70;100539.25;3530044;39;102231;-41
2021/07/13 06:26:05;;;;;;;13.88;8.93;;;18.70;99.90;;;17.64;95.26;100534.34;3529402;39;103146;-41
2021/07/13 06:28:32;;;;;;;12.25;9.48;;;18.70;99.90;;;17.67;95.22;100542.91;3529857;39;102083;-41
2021/07/13 06:31:00;;;;;;;14.43;9.85;;;18.80;99.90;;;17.74;95.38;100539.06;3530417;39;103310;-41
2021/07/13 06:33:27;;;;;;;;;;;18.80;99.90;;;17.78;95.28;100541.03;3530645;39;102408;-42
2021/07/13 06:35:55;;;;;;;15.10;11.38;;;18.80;99.90;;;17.79;94.84;100542.69;3529126;39;104669;-41
2021/07/13 06:38:22;;;;;;;16.77;11.60;;;18.80;99.90;;;17.85;94.70;100542.72;3530217;39;103035;-40
2021/07/13 06:40:50;;;;;;;16.65;11.90;;;18.90;99.90;;;17.89;94.84;100543.84;3530098;39;102302;-41
2021/07/13 06:43:18;;;;;;;17.35;11.25;;;18.90;99.90;;;17.90;94.24;100543.59;3529990;39;102436;-41
2021/07/13 06:45:45;;;;;;;14.93;10.18;;;19.00;99.90;;;17.95;94.46;100551.06;3530045;39;104075;-40
2021/07/13 06:48:12;;;;;;;14.88;10.00;;;19.00;99.90;;;18.01;95.19;100554.66;3530086;39;102637;-41
2021/07/13 06:50:40;;;;;;;16.88;10.20;;;19.00;99.90;;;18.01;94.77;100563.81;3529947;39;102365;-41
2021/07/13 06:53:07;;;;;;;14.55;9.93;;;19.10;99.90;;;18.02;94.40;100568.22;3529646;39;102304;-41
2021/07/13 06:55:35;;;;;;;15.60;9.02;;;19.10;99.90;;;18.03;94.18;100569.03;3529746;39;102206;-41
2021/07/13 06:58:02;;;;;;;14.38;9.65;;;19.10;99.90;;;18.02;94.39;100567.38;3530501;39;102725;-41
2021/07/13 07:00:33;;;;;;;11.30;7.78;;;19.10;99.90;;;17.98;92.89;100565.13;3530275;39;103307;-41
2021/07/13 07:03:00;;;;;;;;;;;19.10;99.90;;;17.98;93.24;100562.38;3530514;39;102421;-40
2021/07/13 07:05:27;;;;;;;11.48;7.35;;;19.10;99.90;;;17.96;93.44;100559.06;3530094;39;103067;-40
2021/07/13 07:07:55;;;;;;;9.52;6.75;;;19.10;99.90;;;17.93;92.59;100559.59;3530520;39;102689;-40
2021/07/13 07:10:23;;;;;;;;;;;19.10;99.90;;;17.88;92.33;100555.97;3530551;39;102196;-41
2021/07/13 07:12:52;;;;;;;9.45;5.78;;;19.00;99.90;;;17.88;92.18;100556.81;3529851;39;102219;-41
2021/07/13 07:15:20;;;;;;;9.65;6.00;;;19.00;99.90;;;17.90;92.51;100565.66;3529503;39;102246;-40
2021/07/13 07:17:50;;;;;;;;;;;19.00;99.90;;;17.92;92.54;100559.88;3530507;39;102647;-43
2021/07/13 07:20:27;;;;;;;7.57;4.93;;;19.00;99.90;;;17.95;92.30;100554.66;3530212;39;102331;-40
2021/07/13 07:22:56;;;;;;;6.30;4.78;;;19.10;99.90;;;17.98;92.46;100553.28;3529657;39;102481;-41
2021/07/13 07:28:16;;;;;;;8.05;5.47;;;19.10;99.90;;;17.94;90.99;100564.03;3502984;40;103426;-40
2021/07/13 07:30:43;;;;;;;7.07;5.68;;;19.00;99.90;;;17.94;91.63;100561.25;3508833;40;104386;-40
2021/07/13 07:33:11;;;;;;;8.25;6.07;;;19.00;99.90;;;17.93;91.71;100558.78;3510055;40;102407;-40
2021/07/13 07:35:39;;;;;;;9.02;6.10;;;19.00;99.90;;;17.98;92.39;100558.81;3509324;40;102370;-40
2021/07/13 07:38:07;;;;;;;7.65;5.50;;;19.00;99.90;;;17.93;91.58;100556.84;3509837;40;102815;-40
2021/07/13 07:40:35;;;;;;;9.05;6.28;;;19.00;99.90;;;17.96;91.90;100563.75;3509771;40;102904;-40
2021/07/13 07:43:02;;;;;;;;;;;19.10;99.90;;;18.01;92.58;100566.56;3510354;40;102418;-40
2021/07/13 07:45:30;;;;;;;10.30;7.07;;;19.10;99.90;;;17.87;90.80;100560.69;3509687;40;104276;-40
2021/07/13 07:47:58;;;;;;;8.75;6.93;;;19.10;99.90;;;17.90;91.43;100571.19;3509294;40;102448;-40
2021/07/13 07:50:27;;;;;;;10.57;6.70;;;19.00;99.90;;;17.90;90.90;100573.09;3509752;40;103288;-40
2021/07/13 07:52:55;;;;;;;9.75;6.80;;;19.00;99.90;;;18.01;92.00;100573.97;3509360;40;102295;-40
2021/07/13 07:55:25;;;;;;;;;;;19.10;99.90;;;18.05;91.47;100577.91;3510252;40;102520;-39
2021/07/13 07:57:54;;;;;;;11.82;8.15;;;19.10;99.90;;;18.04;90.87;100577.06;3510276;40;102276;-40
2021/07/13 08:00:23;;;;;;;11.10;8.43;;;19.10;99.90;;;18.07;91.10;100584.81;3510075;40;104080;-40
2021/07/13 08:02:51;;;;;;;12.15;8.00;;;19.20;99.90;;;18.15;91.38;100582.63;3509550;40;102297;-41
2021/07/13 08:05:19;;;;;;;;;;;19.20;99.90;;;18.22;92.39;100584.06;3509932;40;102311;-40
2021/07/13 08:07:47;;;;;;;13.52;9.00;;;19.30;99.90;;;18.26;92.12;100584.34;3509845;40;103369;-40
2021/07/13 08:10:15;;;;;;;12.77;9.35;;;19.30;99.90;;;18.32;92.47;100593.50;3509907;40;102424;-39
2021/07/13 08:12:45;;;;;;;14.27;10.05;;;19.40;99.90;;;18.33;92.14;100584.09;3509849;40;102449;-40
2021/07/13 08:15:14;;;;;;;15.52;9.73;;;19.40;99.90;;;18.35;92.70;100582.72;3509440;40;104088;-39
2021/07/13 08:17:45;;;;;;;15.20;10.98;;;19.40;99.90;;;18.39;92.88;100589.34;3509168;40;102438;-39
2021/07/13 08:20:14;;;;;;;14.73;10.68;;;19.50;99.90;;;18.37;92.66;100580.50;3509463;40;104377;-40
2021/07/13 08:22:49;;;;;;;16.00;10.35;;;19.50;99.90;;;18.32;92.17;100572.22;3509301;40;103779;-39
2021/07/13 08:25:20;;;;;;;15.00;10.00;;;19.50;99.90;;;18.30;93.29;100552.31;3509390;40;102773;-39
2021/07/13 08:27:49;;;;;;;17.35;11.80;;;19.40;99.90;;;18.33;93.97;100562.00;3508881;40;102945;-39
2021/07/13 08:30:18;;;;;;;19.25;12.93;;;19.40;99.90;;;18.22;92.53;100556.44;3509377;40;102287;-39
2021/07/13 08:32:46;;;;;;;20.55;14.23;;;19.40;99.90;;;18.24;92.98;100565.28;3509844;40;102094;-39
2021/07/13 08:35:14;;;;;;;18.40;12.85;;;19.40;99.90;;;18.28;93.28;100573.88;3509502;40;102175;-40
2021/07/13 08:37:41;;;;;;;20.80;13.48;;;19.40;99.90;;;18.32;93.82;100560.34;3509976;40;102626;-40
2021/07/13 08:40:12;;;;;;;20.38;14.90;;;19.40;99.90;;;18.28;93.25;100559.22;3509364;40;103313;-40
2021/07/13 08:42:42;;;;;;;20.98;14.93;;;19.40;99.90;;;18.30;93.30;100565.28;3509353;40;102720;-40
2021/07/13 08:45:17;;;;;;;21.38;15.98;;;19.40;99.90;;;18.29;93.56;100556.19;3509436;40;102355;-39
2021/07/13 08:47:49;;;;;;;22.85;14.98;;;19.40;99.90;;;18.30;93.83;100551.50;3509502;40;102462;-39
2021/07/13 08:50:20;;;;;;;22.25;15.57;;;19.40;99.90;;;18.39;93.92;100541.59;3508813;40;102290;-41
2021/07/13 08:52:48;;;;;;;24.70;16.25;;;19.50;99.90;;;18.38;93.14;100542.69;3509435;40;103555;-40
2021/07/13 08:55:16;;;;;;;24.15;16.63;;;19.50;99.90;;;18.45;93.53;100543.25;3509508;40;103248;-40
2021/07/13 08:57:45;;;;;;;26.35;16.98;;;19.50;99.90;;;18.48;93.48;100525.31;3508981;40;102541;-40
2021/07/13 09:00:18;;;;;;;26.45;17.40;;;19.50;99.90;;;18.57;93.47;100526.44;3509253;40;102409;-40
2021/07/13 09:03:10;;;;;;;28.38;17.73;;;19.60;99.90;;;18.58;92.65;100519.00;3508828;40;102299;-40
2021/07/13 09:05:45;;;;;;;27.13;17.55;;;19.70;99.90;;;18.60;92.04;100525.06;3509011;40;104325;-40
2021/07/13 09:08:24;;;;;;;25.35;16.98;;;19.70;99.90;;;18.71;92.64;100529.50;3509313;40;102340;-40
2021/07/13 09:11:17;;;;;;;29.98;18.27;;;19.70;99.90;;;18.79;93.51;100528.13;3508900;40;102178;-40
2021/07/13 09:13:48;;;;;;;26.02;17.80;;;19.80;99.90;;;18.85;92.84;100531.72;3508565;40;102473;-40
2021/07/13 09:16:21;;;;;;;25.52;16.48;;;19.80;99.90;;;18.89;93.32;100530.88;3509021;40;102371;-39
2021/07/13 09:18:54;;;;;;;29.40;17.77;;;19.90;99.90;;;18.88;92.43;100533.94;3510931;40;102455;-40
2021/07/13 09:21:24;;;;;;;27.65;18.23;;;19.90;99.90;;;18.75;91.97;100543.59;3510365;40;103134;-40
2021/07/13 09:24:16;;;;;;;25.42;18.33;;;19.90;99.90;;;18.73;92.10;100548.56;3510634;40;102325;-40
2021/07/13 09:26:59;;;;;;;24.55;16.30;;;19.80;99.90;;;18.81;92.70;100551.59;3510598;40;103209;-40
2021/07/13 09:29:40;;;;;;;29.45;18.45;;;19.90;99.90;;;18.90;93.85;100543.59;3510614;40;102139;-40
2021/07/13 09:32:31;;;;;;;27.50;18.20;;;19.90;99.90;;;19.00;94.24;100548.34;3510576;40;103283;-40
2021/07/13 09:35:11;;;;;;;26.75;18.20;;;20.00;99.90;;;19.05;93.87;100551.09;3510152;40;102467;-40
2021/07/13 09:37:48;;;;;;;28.88;20.00;;;20.10;99.90;;;19.11;93.44;100549.16;3509994;40;102431;-40
2021/07/13 09:40:18;;;;;;;26.80;18.77;;;20.10;99.90;;;19.04;92.06;100557.72;3510158;40;102124;-40
2021/07/13 09:42:53;;;;;;;25.20;17.40;;;20.10;99.90;;;19.09;93.21;100554.16;3510362;40;103298;-40
2021/07/13 09:45:24;;;;;;;30.02;19.27;;;20.10;99.90;;;19.19;93.77;100561.59;3510250;40;102189;-40
2021/07/13 09:48:14;;;;;;;29.38;20.55;;;20.20;99.90;;;19.21;93.38;100562.16;3510413;40;102747;-40
2021/07/13 09:50:46;;;;;;;31.63;20.52;;;20.30;99.90;;;19.20;92.82;100569.63;3509882;40;102301;-40
2021/07/13 09:53:20;;;;;;;34.08;22.52;;;20.30;99.90;;;19.23;92.80;100571.84;3510298;40;102519;-40
2021/07/13 09:55:51;;;;;;;33.80;21.70;;;20.30;99.90;;;19.25;92.91;100574.31;3510387;40;103431;-40
2021/07/13 09:58:23;;;;;;;31.13;20.33;;;20.30;99.90;;;19.25;92.01;100569.63;3510208;40;103169;-42
2021/07/13 10:00:57;;;;;;;35.72;23.33;;;20.30;99.90;;;19.29;92.14;100564.34;3510260;40;102552;-40
2021/07/13 10:03:27;;;;;;;28.63;20.17;;;20.40;99.90;;;19.40;93.16;100563.25;3510401;40;103264;-40
2021/07/13 10:05:58;;;;;;;31.25;21.92;;;20.40;99.90;;;19.53;92.10;100572.06;3510253;40;103333;-40
2021/07/13 10:08:26;;;;;;;31.98;21.30;;;20.50;99.90;;;19.50;90.30;100572.63;3510420;40;104320;-40
2021/07/13 10:10:55;;;;;;;30.95;21.98;;;20.60;99.90;;;19.47;89.88;100570.44;3510350;40;102397;-40
2021/07/13 10:13:22;;;;;;;30.83;21.63;;;20.60;99.90;;;19.48;90.35;100572.09;3509866;40;102180;-40
2021/07/13 10:15:51;;;;;;;32.90;22.52;;;20.50;99.90;;;19.54;90.70;100574.56;3510197;40;102495;-39
2021/07/13 10:18:23;;;;;;;33.03;22.08;;;20.60;99.90;;;19.50;90.57;100569.88;3510855;40;102252;-40
2021/07/13 10:20:53;;;;;;;32.90;22.65;;;20.60;99.90;;;19.46;91.08;100568.78;3510063;40;102282;-40